sensor_id;sensor_type;location;lat;lon;timestamp;P1;durP1;ratioP1;P2;durP2;ratioP2
61627;SDS011;55193;52.102;5.242;2022-09-09T00:00:06;2.7;;;1.7;;
61627;SDS011;55193;52.102;5.242;2022-09-09T00:01:50;3.6;;;1.9;;
61627;SDS011;55193;52.102;5.242;2022-09-09T00:03:36;3.0;;;1.9;;
61627;SDS011;55193;52.102;5.242;2022-09-09T00:07:07;3.6;;;1.7;;
61627;SDS011;55193;52.102;5.242;2022-09-09T00:08:52;4.2;;;2.31;;
61627;SDS011;55193;52.102;5.242;2022-09-09T00:10:39;3.1;;;2.21;;
61627;SDS011;55193;52.102;5.242;2022-09-09T00:12:18;3.5;;;2.1;;
61627;SDS011;55193;52.102;5.242;2022-09-09T00:14:13;3.9;;;2.21;;
61627;SDS011;55193;52.102;5.242;2022-09-09T00:15:59;3.2;;;2.0;;
61627;SDS011;55193;52.102;5.242;2022-09-09T00:19:28;3.8;;;2.21;;
61627;SDS011;55193;52.102;5.242;2022-09-09T00:21:15;4.0;;;2.1;;
61627;SDS011;55193;52.102;5.242;2022-09-09T00:22:55;3.8;;;2.4;;
61627;SDS011;55193;52.102;5.242;2022-09-09T00:24:40;4.3;;;2.31;;
61627;SDS011;55193;52.102;5.242;2022-09-09T00:26:21;4.1;;;2.4;;
61627;SDS011;55193;52.102;5.242;2022-09-09T00:29:54;4.61;;;2.5;;
61627;SDS011;55193;52.102;5.242;2022-09-09T00:31:37;3.2;;;2.31;;
61627;SDS011;55193;52.102;5.242;2022-09-09T00:33:15;5.2;;;2.4;;
61627;SDS011;55193;52.102;5.242;2022-09-09T00:34:55;3.8;;;2.31;;
61627;SDS011;55193;52.102;5.242;2022-09-09T00:38:15;3.9;;;2.21;;
61627;SDS011;55193;52.102;5.242;2022-09-09T00:39:57;5.3;;;2.7;;
61627;SDS011;55193;52.102;5.242;2022-09-09T00:41:41;6.8;;;2.7;;
61627;SDS011;55193;52.102;5.242;2022-09-09T00:43:38;4.5;;;2.4;;
61627;SDS011;55193;52.102;5.242;2022-09-09T00:45:19;4.5;;;2.4;;
61627;SDS011;55193;52.102;5.242;2022-09-09T00:47:27;4.41;;;2.7;;
61627;SDS011;55193;52.102;5.242;2022-09-09T00:49:33;4.2;;;2.5;;
61627;SDS011;55193;52.102;5.242;2022-09-09T00:53:15;4.2;;;2.7;;
61627;SDS011;55193;52.102;5.242;2022-09-09T00:55:07;4.1;;;2.4;;
61627;SDS011;55193;52.102;5.242;2022-09-09T00:56:55;7.0;;;2.8;;
61627;SDS011;55193;52.102;5.242;2022-09-09T00:58:42;5.0;;;2.6;;
61627;SDS011;55193;52.102;5.242;2022-09-09T01:00:27;4.91;;;2.5;;
61627;SDS011;55193;52.102;5.242;2022-09-09T01:02:12;5.2;;;2.9;;
61627;SDS011;55193;52.102;5.242;2022-09-09T01:05:33;4.5;;;2.9;;
61627;SDS011;55193;52.102;5.242;2022-09-09T01:07:16;4.5;;;2.9;;
61627;SDS011;55193;52.102;5.242;2022-09-09T01:08:58;5.0;;;2.6;;
61627;SDS011;55193;52.102;5.242;2022-09-09T01:10:57;3.3;;;2.6;;
61627;SDS011;55193;52.102;5.242;2022-09-09T01:12:37;5.0;;;3.1;;
61627;SDS011;55193;52.102;5.242;2022-09-09T01:16:10;3.1;;;2.7;;
61627;SDS011;55193;52.102;5.242;2022-09-09T01:17:50;5.11;;;2.9;;
61627;SDS011;55193;52.102;5.242;2022-09-09T01:19:38;4.7;;;2.8;;
61627;SDS011;55193;52.102;5.242;2022-09-09T01:21:26;4.0;;;2.9;;
61627;SDS011;55193;52.102;5.242;2022-09-09T01:23:18;4.1;;;2.9;;
61627;SDS011;55193;52.102;5.242;2022-09-09T01:25:15;4.5;;;2.7;;
61627;SDS011;55193;52.102;5.242;2022-09-09T01:27:50;3.4;;;2.9;;
61627;SDS011;55193;52.102;5.242;2022-09-09T01:29:31;4.0;;;2.7;;
61627;SDS011;55193;52.102;5.242;2022-09-09T01:32:51;4.7;;;3.0;;
61627;SDS011;55193;52.102;5.242;2022-09-09T01:34:33;5.5;;;3.3;;
61627;SDS011;55193;52.102;5.242;2022-09-09T01:36:17;4.91;;;3.2;;
61627;SDS011;55193;52.102;5.242;2022-09-09T01:38:00;4.91;;;3.2;;
61627;SDS011;55193;52.102;5.242;2022-09-09T01:39:37;6.0;;;3.8;;
61627;SDS011;55193;52.102;5.242;2022-09-09T01:42:55;3.6;;;3.2;;
61627;SDS011;55193;52.102;5.242;2022-09-09T01:44:32;6.4;;;3.4;;
61627;SDS011;55193;52.102;5.242;2022-09-09T01:46:10;5.4;;;3.2;;
61627;SDS011;55193;52.102;5.242;2022-09-09T01:49:26;5.9;;;3.3;;
61627;SDS011;55193;52.102;5.242;2022-09-09T01:51:03;5.8;;;3.3;;
61627;SDS011;55193;52.102;5.242;2022-09-09T01:52:39;5.7;;;3.2;;
61627;SDS011;55193;52.102;5.242;2022-09-09T01:54:16;6.1;;;3.3;;
61627;SDS011;55193;52.102;5.242;2022-09-09T01:57:42;5.2;;;3.4;;
61627;SDS011;55193;52.102;5.242;2022-09-09T01:59:36;5.5;;;3.6;;
61627;SDS011;55193;52.102;5.242;2022-09-09T02:01:26;6.0;;;3.5;;
61627;SDS011;55193;52.102;5.242;2022-09-09T02:03:18;4.41;;;3.6;;
61627;SDS011;55193;52.102;5.242;2022-09-09T02:05:02;7.3;;;3.6;;
61627;SDS011;55193;52.102;5.242;2022-09-09T02:06:52;4.91;;;3.4;;
61627;SDS011;55193;52.102;5.242;2022-09-09T02:10:19;6.8;;;3.9;;
61627;SDS011;55193;52.102;5.242;2022-09-09T02:12:06;5.9;;;3.4;;
61627;SDS011;55193;52.102;5.242;2022-09-09T02:13:48;4.91;;;3.1;;
61627;SDS011;55193;52.102;5.242;2022-09-09T02:15:30;6.7;;;3.5;;
61627;SDS011;55193;52.102;5.242;2022-09-09T02:17:15;6.4;;;3.5;;
61627;SDS011;55193;52.102;5.242;2022-09-09T02:20:41;6.7;;;3.5;;
61627;SDS011;55193;52.102;5.242;2022-09-09T02:22:21;4.1;;;3.4;;
61627;SDS011;55193;52.102;5.242;2022-09-09T02:24:00;4.61;;;3.4;;
61627;SDS011;55193;52.102;5.242;2022-09-09T02:25:41;5.4;;;3.5;;
61627;SDS011;55193;52.102;5.242;2022-09-09T02:28:58;4.3;;;3.7;;
61627;SDS011;55193;52.102;5.242;2022-09-09T02:30:38;7.1;;;3.9;;
61627;SDS011;55193;52.102;5.242;2022-09-09T02:32:19;5.4;;;3.4;;
61627;SDS011;55193;52.102;5.242;2022-09-09T02:33:59;4.2;;;3.4;;
61627;SDS011;55193;52.102;5.242;2022-09-09T02:37:18;5.3;;;3.5;;
61627;SDS011;55193;52.102;5.242;2022-09-09T02:38:58;5.4;;;3.8;;
61627;SDS011;55193;52.102;5.242;2022-09-09T02:40:35;5.5;;;3.9;;
61627;SDS011;55193;52.102;5.242;2022-09-09T02:43:47;5.0;;;3.3;;
61627;SDS011;55193;52.102;5.242;2022-09-09T02:45:25;7.4;;;3.6;;
61627;SDS011;55193;52.102;5.242;2022-09-09T02:47:11;4.61;;;3.4;;
61627;SDS011;55193;52.102;5.242;2022-09-09T02:49:00;5.7;;;4.0;;
61627;SDS011;55193;52.102;5.242;2022-09-09T02:50:46;6.4;;;3.6;;
61627;SDS011;55193;52.102;5.242;2022-09-09T02:54:20;6.2;;;3.5;;
61627;SDS011;55193;52.102;5.242;2022-09-09T02:56:03;5.7;;;3.5;;
61627;SDS011;55193;52.102;5.242;2022-09-09T02:57:47;6.3;;;3.8;;
61627;SDS011;55193;52.102;5.242;2022-09-09T02:59:25;6.6;;;3.9;;
61627;SDS011;55193;52.102;5.242;2022-09-09T03:02:39;5.11;;;3.7;;
61627;SDS011;55193;52.102;5.242;2022-09-09T03:04:15;5.3;;;3.5;;
61627;SDS011;55193;52.102;5.242;2022-09-09T03:05:51;7.2;;;4.2;;
61627;SDS011;55193;52.102;5.242;2022-09-09T03:07:27;9.0;;;4.3;;
61627;SDS011;55193;52.102;5.242;2022-09-09T03:10:40;5.6;;;3.9;;
61627;SDS011;55193;52.102;5.242;2022-09-09T03:12:16;7.0;;;4.1;;
61627;SDS011;55193;52.102;5.242;2022-09-09T03:13:53;5.9;;;3.9;;
61627;SDS011;55193;52.102;5.242;2022-09-09T03:17:09;5.7;;;4.2;;
61627;SDS011;55193;52.102;5.242;2022-09-09T03:18:45;5.9;;;3.9;;
61627;SDS011;55193;52.102;5.242;2022-09-09T03:20:22;8.0;;;4.2;;
61627;SDS011;55193;52.102;5.242;2022-09-09T03:23:36;6.7;;;4.61;;
61627;SDS011;55193;52.102;5.242;2022-09-09T03:25:12;6.5;;;4.41;;
61627;SDS011;55193;52.102;5.242;2022-09-09T03:26:50;7.6;;;4.7;;
61627;SDS011;55193;52.102;5.242;2022-09-09T03:28:31;7.9;;;4.41;;
61627;SDS011;55193;52.102;5.242;2022-09-09T03:31:44;6.1;;;4.3;;
61627;SDS011;55193;52.102;5.242;2022-09-09T03:33:20;5.7;;;4.2;;
61627;SDS011;55193;52.102;5.242;2022-09-09T03:34:56;5.6;;;3.8;;
61627;SDS011;55193;52.102;5.242;2022-09-09T03:38:10;5.8;;;4.1;;
61627;SDS011;55193;52.102;5.242;2022-09-09T03:39:46;5.8;;;4.1;;
61627;SDS011;55193;52.102;5.242;2022-09-09T03:41:24;7.8;;;4.3;;
61627;SDS011;55193;52.102;5.242;2022-09-09T03:43:01;6.8;;;4.5;;
61627;SDS011;55193;52.102;5.242;2022-09-09T03:46:13;7.3;;;4.3;;
61627;SDS011;55193;52.102;5.242;2022-09-09T03:47:50;7.7;;;4.61;;
61627;SDS011;55193;52.102;5.242;2022-09-09T03:49:28;7.2;;;4.41;;
61627;SDS011;55193;52.102;5.242;2022-09-09T03:52:42;7.2;;;4.61;;
61627;SDS011;55193;52.102;5.242;2022-09-09T03:54:18;6.1;;;4.41;;
61627;SDS011;55193;52.102;5.242;2022-09-09T03:55:55;6.5;;;4.2;;
61627;SDS011;55193;52.102;5.242;2022-09-09T03:59:11;7.7;;;4.5;;
61627;SDS011;55193;52.102;5.242;2022-09-09T04:00:52;5.9;;;4.61;;
61627;SDS011;55193;52.102;5.242;2022-09-09T04:02:30;6.3;;;4.0;;
61627;SDS011;55193;52.102;5.242;2022-09-09T04:04:07;5.8;;;4.0;;
61627;SDS011;55193;52.102;5.242;2022-09-09T04:07:25;7.7;;;4.2;;
61627;SDS011;55193;52.102;5.242;2022-09-09T04:09:03;6.8;;;4.0;;
61627;SDS011;55193;52.102;5.242;2022-09-09T04:10:39;6.7;;;4.7;;
61627;SDS011;55193;52.102;5.242;2022-09-09T04:12:16;8.0;;;5.0;;
61627;SDS011;55193;52.102;5.242;2022-09-09T04:15:28;7.0;;;4.61;;
61627;SDS011;55193;52.102;5.242;2022-09-09T04:17:06;8.2;;;4.61;;
61627;SDS011;55193;52.102;5.242;2022-09-09T04:18:42;9.0;;;5.2;;
61627;SDS011;55193;52.102;5.242;2022-09-09T04:21:55;5.9;;;4.41;;
61627;SDS011;55193;52.102;5.242;2022-09-09T04:23:31;6.4;;;4.7;;
61627;SDS011;55193;52.102;5.242;2022-09-09T04:25:08;7.2;;;4.8;;
61627;SDS011;55193;52.102;5.242;2022-09-09T04:28:22;7.9;;;4.91;;
61627;SDS011;55193;52.102;5.242;2022-09-09T04:30:01;8.31;;;5.0;;
61627;SDS011;55193;52.102;5.242;2022-09-09T04:31:41;7.0;;;4.3;;
61627;SDS011;55193;52.102;5.242;2022-09-09T04:33:17;6.7;;;4.2;;
61627;SDS011;55193;52.102;5.242;2022-09-09T04:36:31;9.31;;;4.61;;
61627;SDS011;55193;52.102;5.242;2022-09-09T04:38:09;7.0;;;4.41;;
61627;SDS011;55193;52.102;5.242;2022-09-09T04:39:45;6.3;;;4.5;;
61627;SDS011;55193;52.102;5.242;2022-09-09T04:42:57;6.5;;;4.41;;
61627;SDS011;55193;52.102;5.242;2022-09-09T04:44:35;7.3;;;4.2;;
61627;SDS011;55193;52.102;5.242;2022-09-09T04:46:11;8.1;;;4.8;;
61627;SDS011;55193;52.102;5.242;2022-09-09T04:49:23;9.21;;;5.0;;
61627;SDS011;55193;52.102;5.242;2022-09-09T04:51:00;6.7;;;4.61;;
61627;SDS011;55193;52.102;5.242;2022-09-09T04:52:37;9.31;;;4.8;;
61627;SDS011;55193;52.102;5.242;2022-09-09T04:54:13;7.1;;;4.7;;
61627;SDS011;55193;52.102;5.242;2022-09-09T04:57:26;7.3;;;4.5;;
61627;SDS011;55193;52.102;5.242;2022-09-09T04:59:02;6.8;;;4.61;;
61627;SDS011;55193;52.102;5.242;2022-09-09T05:00:38;5.3;;;4.5;;
61627;SDS011;55193;52.102;5.242;2022-09-09T05:03:51;8.5;;;4.5;;
61627;SDS011;55193;52.102;5.242;2022-09-09T05:05:28;8.2;;;4.3;;
61627;SDS011;55193;52.102;5.242;2022-09-09T05:07:04;7.9;;;4.41;;
61627;SDS011;55193;52.102;5.242;2022-09-09T05:10:18;6.2;;;3.6;;
61627;SDS011;55193;52.102;5.242;2022-09-09T05:11:57;6.9;;;3.9;;
61627;SDS011;55193;52.102;5.242;2022-09-09T05:13:34;8.6;;;4.91;;
61627;SDS011;55193;52.102;5.242;2022-09-09T05:15:10;6.5;;;4.3;;
61627;SDS011;55193;52.102;5.242;2022-09-09T05:18:23;7.9;;;4.2;;
61627;SDS011;55193;52.102;5.242;2022-09-09T05:19:59;8.2;;;4.41;;
61627;SDS011;55193;52.102;5.242;2022-09-09T05:21:35;9.31;;;4.1;;
61627;SDS011;55193;52.102;5.242;2022-09-09T05:24:50;9.1;;;3.6;;
61627;SDS011;55193;52.102;5.242;2022-09-09T05:26:26;15.2;;;5.6;;
61627;SDS011;55193;52.102;5.242;2022-09-09T05:28:02;10.3;;;4.41;;
61627;SDS011;55193;52.102;5.242;2022-09-09T05:29:38;7.3;;;3.8;;
61627;SDS011;55193;52.102;5.242;2022-09-09T05:32:55;6.3;;;3.9;;
61627;SDS011;55193;52.102;5.242;2022-09-09T05:34:32;6.2;;;3.8;;
61627;SDS011;55193;52.102;5.242;2022-09-09T05:36:09;7.3;;;3.5;;
61627;SDS011;55193;52.102;5.242;2022-09-09T05:39:23;8.4;;;3.6;;
61627;SDS011;55193;52.102;5.242;2022-09-09T05:40:59;5.6;;;3.6;;
61627;SDS011;55193;52.102;5.242;2022-09-09T05:42:37;5.6;;;3.6;;
61627;SDS011;55193;52.102;5.242;2022-09-09T05:45:58;7.6;;;3.7;;
61627;SDS011;55193;52.102;5.242;2022-09-09T05:47:35;9.81;;;3.7;;
61627;SDS011;55193;52.102;5.242;2022-09-09T05:49:12;8.9;;;3.7;;
61627;SDS011;55193;52.102;5.242;2022-09-09T05:50:52;8.9;;;3.5;;
61627;SDS011;55193;52.102;5.242;2022-09-09T05:54:05;7.2;;;3.3;;
61627;SDS011;55193;52.102;5.242;2022-09-09T05:55:42;8.71;;;3.9;;
61627;SDS011;55193;52.102;5.242;2022-09-09T05:57:19;6.7;;;3.3;;
61627;SDS011;55193;52.102;5.242;2022-09-09T06:00:32;9.1;;;3.0;;
61627;SDS011;55193;52.102;5.242;2022-09-09T06:02:08;5.7;;;2.9;;
61627;SDS011;55193;52.102;5.242;2022-09-09T06:03:45;6.6;;;3.0;;
61627;SDS011;55193;52.102;5.242;2022-09-09T06:05:23;6.1;;;3.1;;
61627;SDS011;55193;52.102;5.242;2022-09-09T06:08:38;6.9;;;3.2;;
61627;SDS011;55193;52.102;5.242;2022-09-09T06:10:16;6.7;;;3.1;;
61627;SDS011;55193;52.102;5.242;2022-09-09T06:11:54;8.6;;;3.2;;
61627;SDS011;55193;52.102;5.242;2022-09-09T06:15:09;8.1;;;3.3;;
61627;SDS011;55193;52.102;5.242;2022-09-09T06:16:46;9.21;;;2.7;;
61627;SDS011;55193;52.102;5.242;2022-09-09T06:18:22;6.3;;;3.2;;
61627;SDS011;55193;52.102;5.242;2022-09-09T06:19:59;6.2;;;2.9;;
61627;SDS011;55193;52.102;5.242;2022-09-09T06:23:13;6.6;;;3.1;;
61627;SDS011;55193;52.102;5.242;2022-09-09T06:24:49;4.7;;;2.4;;
61627;SDS011;55193;52.102;5.242;2022-09-09T06:26:26;10.0;;;2.4;;
61627;SDS011;55193;52.102;5.242;2022-09-09T06:29:39;6.4;;;3.0;;
61627;SDS011;55193;52.102;5.242;2022-09-09T06:31:17;5.7;;;2.7;;
61627;SDS011;55193;52.102;5.242;2022-09-09T06:32:55;5.2;;;2.9;;
61627;SDS011;55193;52.102;5.242;2022-09-09T06:34:32;5.5;;;2.7;;
61627;SDS011;55193;52.102;5.242;2022-09-09T06:37:48;8.5;;;3.2;;
61627;SDS011;55193;52.102;5.242;2022-09-09T06:39:24;7.2;;;2.9;;
61627;SDS011;55193;52.102;5.242;2022-09-09T06:41:01;8.1;;;2.8;;
61627;SDS011;55193;52.102;5.242;2022-09-09T06:44:15;6.5;;;2.5;;
61627;SDS011;55193;52.102;5.242;2022-09-09T06:45:52;12.6;;;4.0;;
61627;SDS011;55193;52.102;5.242;2022-09-09T06:47:30;6.5;;;2.6;;
61627;SDS011;55193;52.102;5.242;2022-09-09T06:50:43;8.0;;;2.7;;
61627;SDS011;55193;52.102;5.242;2022-09-09T06:52:19;5.3;;;2.6;;
61627;SDS011;55193;52.102;5.242;2022-09-09T06:53:56;8.0;;;2.5;;
61627;SDS011;55193;52.102;5.242;2022-09-09T06:55:34;7.7;;;3.0;;
61627;SDS011;55193;52.102;5.242;2022-09-09T06:58:49;7.0;;;2.6;;
61627;SDS011;55193;52.102;5.242;2022-09-09T07:00:26;7.4;;;2.6;;
61627;SDS011;55193;52.102;5.242;2022-09-09T07:02:03;7.8;;;2.7;;
61627;SDS011;55193;52.102;5.242;2022-09-09T07:05:16;8.81;;;2.4;;
61627;SDS011;55193;52.102;5.242;2022-09-09T07:06:52;5.5;;;2.6;;
61627;SDS011;55193;52.102;5.242;2022-09-09T07:08:28;5.3;;;2.4;;
61627;SDS011;55193;52.102;5.242;2022-09-09T07:10:04;5.2;;;2.1;;
61627;SDS011;55193;52.102;5.242;2022-09-09T07:13:23;8.9;;;3.0;;
61627;SDS011;55193;52.102;5.242;2022-09-09T07:15:01;7.3;;;2.4;;
61627;SDS011;55193;52.102;5.242;2022-09-09T07:16:37;6.7;;;2.4;;
61627;SDS011;55193;52.102;5.242;2022-09-09T07:19:49;6.4;;;2.0;;
61627;SDS011;55193;52.102;5.242;2022-09-09T07:21:26;12.5;;;2.5;;
61627;SDS011;55193;52.102;5.242;2022-09-09T07:23:04;10.3;;;2.8;;
61627;SDS011;55193;52.102;5.242;2022-09-09T07:26:18;6.5;;;2.1;;
61627;SDS011;55193;52.102;5.242;2022-09-09T07:27:57;8.2;;;2.8;;
61627;SDS011;55193;52.102;5.242;2022-09-09T07:29:33;9.1;;;2.5;;
61627;SDS011;55193;52.102;5.242;2022-09-09T07:31:12;7.4;;;2.21;;
61627;SDS011;55193;52.102;5.242;2022-09-09T07:34:27;6.2;;;2.5;;
61627;SDS011;55193;52.102;5.242;2022-09-09T07:36:05;13.0;;;3.4;;
61627;SDS011;55193;52.102;5.242;2022-09-09T07:37:43;6.2;;;2.4;;
61627;SDS011;55193;52.102;5.242;2022-09-09T07:41:02;10.5;;;2.7;;
61627;SDS011;55193;52.102;5.242;2022-09-09T07:42:39;9.0;;;2.5;;
61627;SDS011;55193;52.102;5.242;2022-09-09T07:44:17;7.3;;;2.5;;
61627;SDS011;55193;52.102;5.242;2022-09-09T07:45:56;7.3;;;2.5;;
61627;SDS011;55193;52.102;5.242;2022-09-09T07:49:10;7.3;;;2.31;;
61627;SDS011;55193;52.102;5.242;2022-09-09T07:50:47;9.6;;;2.9;;
61627;SDS011;55193;52.102;5.242;2022-09-09T07:52:23;7.6;;;2.5;;
61627;SDS011;55193;52.102;5.242;2022-09-09T07:55:37;7.3;;;2.7;;
61627;SDS011;55193;52.102;5.242;2022-09-09T07:57:15;8.4;;;2.8;;
61627;SDS011;55193;52.102;5.242;2022-09-09T07:58:53;9.81;;;2.8;;
61627;SDS011;55193;52.102;5.242;2022-09-09T08:00:30;7.7;;;2.6;;
61627;SDS011;55193;52.102;5.242;2022-09-09T08:03:45;7.9;;;2.4;;
61627;SDS011;55193;52.102;5.242;2022-09-09T08:05:28;7.3;;;2.6;;
61627;SDS011;55193;52.102;5.242;2022-09-09T08:07:04;6.6;;;2.5;;
61627;SDS011;55193;52.102;5.242;2022-09-09T08:08:41;8.5;;;2.21;;
61627;SDS011;55193;52.102;5.242;2022-09-09T08:11:56;7.7;;;2.4;;
61627;SDS011;55193;52.102;5.242;2022-09-09T08:13:33;8.5;;;2.7;;
61627;SDS011;55193;52.102;5.242;2022-09-09T08:15:10;5.5;;;2.21;;
61627;SDS011;55193;52.102;5.242;2022-09-09T08:18:26;7.1;;;2.0;;
61627;SDS011;55193;52.102;5.242;2022-09-09T08:20:06;7.2;;;2.4;;
61627;SDS011;55193;52.102;5.242;2022-09-09T08:21:42;8.31;;;2.6;;
61627;SDS011;55193;52.102;5.242;2022-09-09T08:23:21;6.9;;;2.1;;
61627;SDS011;55193;52.102;5.242;2022-09-09T08:26:35;9.5;;;2.31;;
61627;SDS011;55193;52.102;5.242;2022-09-09T08:28:12;7.4;;;2.5;;
61627;SDS011;55193;52.102;5.242;2022-09-09T08:29:48;12.3;;;3.2;;
61627;SDS011;55193;52.102;5.242;2022-09-09T08:33:05;7.0;;;2.1;;
61627;SDS011;55193;52.102;5.242;2022-09-09T08:34:41;6.8;;;2.0;;
61627;SDS011;55193;52.102;5.242;2022-09-09T08:36:19;5.6;;;2.1;;
61627;SDS011;55193;52.102;5.242;2022-09-09T08:37:58;6.8;;;2.31;;
61627;SDS011;55193;52.102;5.242;2022-09-09T08:41:15;6.4;;;1.9;;
61627;SDS011;55193;52.102;5.242;2022-09-09T08:43:42;6.9;;;1.9;;
61627;SDS011;55193;52.102;5.242;2022-09-09T08:45:24;8.2;;;2.21;;
61627;SDS011;55193;52.102;5.242;2022-09-09T08:47:08;6.3;;;2.31;;
61627;SDS011;55193;52.102;5.242;2022-09-09T08:49:00;8.2;;;2.4;;
61627;SDS011;55193;52.102;5.242;2022-09-09T08:50:43;5.6;;;2.1;;
61627;SDS011;55193;52.102;5.242;2022-09-09T08:54:03;5.6;;;2.1;;
61627;SDS011;55193;52.102;5.242;2022-09-09T08:55:42;6.1;;;2.31;;
61627;SDS011;55193;52.102;5.242;2022-09-09T08:57:21;9.1;;;2.7;;
61627;SDS011;55193;52.102;5.242;2022-09-09T08:59:03;6.9;;;2.4;;
61627;SDS011;55193;52.102;5.242;2022-09-09T09:02:46;8.0;;;2.21;;
61627;SDS011;55193;52.102;5.242;2022-09-09T09:04:38;7.3;;;2.0;;
61627;SDS011;55193;52.102;5.242;2022-09-09T09:06:33;6.6;;;2.21;;
61627;SDS011;55193;52.102;5.242;2022-09-09T09:08:22;7.8;;;2.4;;
61627;SDS011;55193;52.102;5.242;2022-09-09T09:10:10;6.2;;;2.21;;
61627;SDS011;55193;52.102;5.242;2022-09-09T09:12:01;6.2;;;2.5;;
61627;SDS011;55193;52.102;5.242;2022-09-09T09:13:44;7.0;;;2.21;;
61627;SDS011;55193;52.102;5.242;2022-09-09T09:17:13;8.9;;;2.4;;
61627;SDS011;55193;52.102;5.242;2022-09-09T09:18:55;9.71;;;2.1;;
61627;SDS011;55193;52.102;5.242;2022-09-09T09:20:33;8.5;;;2.5;;
61627;SDS011;55193;52.102;5.242;2022-09-09T09:22:20;9.4;;;2.4;;
61627;SDS011;55193;52.102;5.242;2022-09-09T09:23:59;8.1;;;2.6;;
61627;SDS011;55193;52.102;5.242;2022-09-09T09:27:20;8.6;;;2.4;;
61627;SDS011;55193;52.102;5.242;2022-09-09T09:29:10;11.7;;;2.9;;
61627;SDS011;55193;52.102;5.242;2022-09-09T09:30:49;6.9;;;2.21;;
61627;SDS011;55193;52.102;5.242;2022-09-09T09:32:30;8.0;;;2.31;;
61627;SDS011;55193;52.102;5.242;2022-09-09T09:35:48;8.31;;;2.6;;
61627;SDS011;55193;52.102;5.242;2022-09-09T09:37:26;7.8;;;2.31;;
61627;SDS011;55193;52.102;5.242;2022-09-09T09:39:06;7.5;;;2.21;;
61627;SDS011;55193;52.102;5.242;2022-09-09T09:40:48;8.31;;;2.21;;
61627;SDS011;55193;52.102;5.242;2022-09-09T09:44:06;8.6;;;2.31;;
61627;SDS011;55193;52.102;5.242;2022-09-09T09:46:00;8.1;;;2.21;;
61627;SDS011;55193;52.102;5.242;2022-09-09T09:47:40;11.1;;;2.9;;
61627;SDS011;55193;52.102;5.242;2022-09-09T09:49:17;9.31;;;2.6;;
61627;SDS011;55193;52.102;5.242;2022-09-09T09:52:34;9.31;;;2.6;;
61627;SDS011;55193;52.102;5.242;2022-09-09T09:54:15;7.0;;;2.5;;
61627;SDS011;55193;52.102;5.242;2022-09-09T09:55:59;5.9;;;2.5;;
61627;SDS011;55193;52.102;5.242;2022-09-09T09:57:39;6.5;;;2.6;;
61627;SDS011;55193;52.102;5.242;2022-09-09T10:01:18;10.4;;;2.9;;
61627;SDS011;55193;52.102;5.242;2022-09-09T10:02:59;7.8;;;2.6;;
61627;SDS011;55193;52.102;5.242;2022-09-09T10:04:35;7.2;;;2.7;;
61627;SDS011;55193;52.102;5.242;2022-09-09T10:06:12;13.1;;;3.8;;
61627;SDS011;55193;52.102;5.242;2022-09-09T10:09:37;10.3;;;2.8;;
61627;SDS011;55193;52.102;5.242;2022-09-09T10:11:19;6.3;;;2.5;;
61627;SDS011;55193;52.102;5.242;2022-09-09T10:13:07;6.3;;;2.6;;
61627;SDS011;55193;52.102;5.242;2022-09-09T10:14:52;6.8;;;2.5;;
61627;SDS011;55193;52.102;5.242;2022-09-09T10:16:42;8.71;;;2.4;;
61627;SDS011;55193;52.102;5.242;2022-09-09T10:18:36;9.9;;;2.8;;
61627;SDS011;55193;52.102;5.242;2022-09-09T10:22:15;7.1;;;2.31;;
61627;SDS011;55193;52.102;5.242;2022-09-09T10:24:07;9.4;;;2.4;;
61627;SDS011;55193;52.102;5.242;2022-09-09T10:26:04;8.71;;;2.31;;
61627;SDS011;55193;52.102;5.242;2022-09-09T10:30:58;8.2;;;2.6;;
61627;SDS011;55193;52.102;5.242;2022-09-09T10:34:46;7.6;;;2.4;;
61627;SDS011;55193;52.102;5.242;2022-09-09T10:36:31;7.7;;;2.5;;
61627;SDS011;55193;52.102;5.242;2022-09-09T10:38:16;7.7;;;2.8;;
61627;SDS011;55193;52.102;5.242;2022-09-09T10:39:56;9.71;;;2.7;;
61627;SDS011;55193;52.102;5.242;2022-09-09T10:41:54;8.5;;;2.6;;
61627;SDS011;55193;52.102;5.242;2022-09-09T10:43:42;7.9;;;2.7;;
61627;SDS011;55193;52.102;5.242;2022-09-09T10:47:28;9.21;;;2.8;;
61627;SDS011;55193;52.102;5.242;2022-09-09T10:49:26;6.3;;;2.9;;
61627;SDS011;55193;52.102;5.242;2022-09-09T10:51:23;8.0;;;2.6;;
61627;SDS011;55193;52.102;5.242;2022-09-09T10:53:08;7.1;;;2.4;;
61627;SDS011;55193;52.102;5.242;2022-09-09T10:54:53;7.6;;;2.8;;
61627;SDS011;55193;52.102;5.242;2022-09-09T10:56:36;8.1;;;2.8;;
61627;SDS011;55193;52.102;5.242;2022-09-09T10:58:14;6.5;;;2.9;;
61627;SDS011;55193;52.102;5.242;2022-09-09T11:01:43;5.5;;;2.5;;
61627;SDS011;55193;52.102;5.242;2022-09-09T11:03:23;7.2;;;2.6;;
61627;SDS011;55193;52.102;5.242;2022-09-09T11:05:04;9.5;;;2.7;;
61627;SDS011;55193;52.102;5.242;2022-09-09T11:06:53;7.9;;;2.9;;
61627;SDS011;55193;52.102;5.242;2022-09-09T11:10:16;8.2;;;2.9;;
61627;SDS011;55193;52.102;5.242;2022-09-09T11:12:00;5.4;;;2.5;;
61627;SDS011;55193;52.102;5.242;2022-09-09T11:13:39;9.4;;;2.8;;
61627;SDS011;55193;52.102;5.242;2022-09-09T11:15:23;7.1;;;3.2;;
61627;SDS011;55193;52.102;5.242;2022-09-09T11:17:15;9.71;;;2.8;;
61627;SDS011;55193;52.102;5.242;2022-09-09T11:20:41;8.1;;;2.8;;
61627;SDS011;55193;52.102;5.242;2022-09-09T11:22:22;7.3;;;2.7;;
61627;SDS011;55193;52.102;5.242;2022-09-09T11:24:13;7.0;;;2.7;;
61627;SDS011;55193;52.102;5.242;2022-09-09T11:25:57;7.4;;;2.9;;
61627;SDS011;55193;52.102;5.242;2022-09-09T11:27:40;7.7;;;2.6;;
61627;SDS011;55193;52.102;5.242;2022-09-09T11:29:49;6.5;;;2.5;;
61627;SDS011;55193;52.102;5.242;2022-09-09T11:31:44;8.0;;;2.8;;
61627;SDS011;55193;52.102;5.242;2022-09-09T11:35:34;7.5;;;2.4;;
61627;SDS011;55193;52.102;5.242;2022-09-09T11:37:25;7.6;;;2.21;;
61627;SDS011;55193;52.102;5.242;2022-09-09T11:39:35;5.9;;;2.1;;
61627;SDS011;55193;52.102;5.242;2022-09-09T11:41:40;4.91;;;2.1;;
61627;SDS011;55193;52.102;5.242;2022-09-09T11:43:18;6.1;;;2.1;;
61627;SDS011;55193;52.102;5.242;2022-09-09T11:45:08;6.5;;;2.31;;
61627;SDS011;55193;52.102;5.242;2022-09-09T11:46:46;5.3;;;2.0;;
61627;SDS011;55193;52.102;5.242;2022-09-09T11:48:29;5.5;;;1.9;;
61627;SDS011;55193;52.102;5.242;2022-09-09T11:52:10;7.7;;;2.1;;
61627;SDS011;55193;52.102;5.242;2022-09-09T11:53:56;5.9;;;2.21;;
61627;SDS011;55193;52.102;5.242;2022-09-09T11:55:36;4.61;;;2.1;;
61627;SDS011;55193;52.102;5.242;2022-09-09T11:57:16;4.0;;;1.9;;
61627;SDS011;55193;52.102;5.242;2022-09-09T11:59:02;5.3;;;2.0;;
61627;SDS011;55193;52.102;5.242;2022-09-09T12:02:21;6.2;;;2.4;;
61627;SDS011;55193;52.102;5.242;2022-09-09T12:04:05;5.6;;;2.5;;
61627;SDS011;55193;52.102;5.242;2022-09-09T12:05:49;6.7;;;2.8;;
61627;SDS011;55193;52.102;5.242;2022-09-09T12:07:30;6.8;;;3.0;;
61627;SDS011;55193;52.102;5.242;2022-09-09T12:10:59;7.1;;;2.9;;
61627;SDS011;55193;52.102;5.242;2022-09-09T12:12:36;7.8;;;3.1;;
61627;SDS011;55193;52.102;5.242;2022-09-09T12:14:19;6.6;;;3.1;;
61627;SDS011;55193;52.102;5.242;2022-09-09T12:16:26;7.3;;;2.8;;
61627;SDS011;55193;52.102;5.242;2022-09-09T12:18:04;7.5;;;2.6;;
61627;SDS011;55193;52.102;5.242;2022-09-09T12:19:59;7.5;;;3.0;;
61627;SDS011;55193;52.102;5.242;2022-09-09T12:23:29;9.0;;;2.8;;
61627;SDS011;55193;52.102;5.242;2022-09-09T12:25:16;7.3;;;2.7;;
61627;SDS011;55193;52.102;5.242;2022-09-09T12:27:01;7.5;;;2.8;;
61627;SDS011;55193;52.102;5.242;2022-09-09T12:28:46;7.4;;;2.9;;
61627;SDS011;55193;52.102;5.242;2022-09-09T12:30:32;6.0;;;2.8;;
61627;SDS011;55193;52.102;5.242;2022-09-09T12:32:19;5.6;;;2.6;;
61627;SDS011;55193;52.102;5.242;2022-09-09T12:35:48;6.6;;;3.3;;
61627;SDS011;55193;52.102;5.242;2022-09-09T12:37:32;4.91;;;2.7;;
61627;SDS011;55193;52.102;5.242;2022-09-09T12:39:15;8.0;;;2.8;;
61627;SDS011;55193;52.102;5.242;2022-09-09T12:40:56;7.8;;;3.2;;
61627;SDS011;55193;52.102;5.242;2022-09-09T12:44:15;5.8;;;2.5;;
61627;SDS011;55193;52.102;5.242;2022-09-09T12:45:58;8.2;;;3.0;;
61627;SDS011;55193;52.102;5.242;2022-09-09T12:47:39;6.3;;;3.2;;
61627;SDS011;55193;52.102;5.242;2022-09-09T12:49:26;7.6;;;3.2;;
61627;SDS011;55193;52.102;5.242;2022-09-09T12:51:06;8.0;;;3.3;;
61627;SDS011;55193;52.102;5.242;2022-09-09T12:54:42;7.4;;;3.5;;
61627;SDS011;55193;52.102;5.242;2022-09-09T12:56:21;10.8;;;4.2;;
61627;SDS011;55193;52.102;5.242;2022-09-09T12:58:00;7.5;;;3.1;;
61627;SDS011;55193;52.102;5.242;2022-09-09T12:59:39;6.9;;;3.2;;